createdAt,value
2019-05-26T00:04:34.405Z,8.50
2019-05-26T00:09:36.102Z,8.60
2019-05-26T00:14:38.014Z,8.70
2019-05-26T00:19:39.646Z,8.70
2019-05-26T00:24:41.269Z,8.60
2019-05-26T00:29:42.859Z,8.50
2019-05-26T00:34:44.401Z,8.40
2019-05-26T00:39:46.293Z,8.30
2019-05-26T00:44:48.137Z,8.20
2019-05-26T00:49:49.990Z,8.10
2019-05-26T00:54:51.777Z,8.00
2019-05-26T00:59:53.669Z,7.80
2019-05-26T01:04:55.660Z,7.90
2019-05-26T01:09:57.312Z,7.80
2019-05-26T01:14:59.211Z,7.80
2019-05-26T01:20:00.791Z,7.70
2019-05-26T01:25:06.153Z,7.50
2019-05-26T01:30:08.772Z,7.60
2019-05-26T01:35:11.062Z,7.50
2019-05-26T01:40:13.512Z,7.40
2019-05-26T01:45:15.319Z,7.40
2019-05-26T01:50:17.209Z,7.30
2019-05-26T01:55:18.778Z,7.20
2019-05-26T02:00:21.033Z,7.20
2019-05-26T02:05:22.522Z,7.10
2019-05-26T02:10:24.310Z,7.00
2019-05-26T02:15:27.605Z,7.00
2019-05-26T02:20:29.658Z,7.00
2019-05-26T02:25:31.467Z,6.90
2019-05-26T02:30:33.048Z,6.90
2019-05-26T02:35:34.631Z,6.80
2019-05-26T02:40:36.288Z,6.80
2019-05-26T02:45:37.982Z,6.80
2019-05-26T02:50:39.473Z,6.80
2019-05-26T02:55:41.481Z,6.70
2019-05-26T03:00:45.376Z,6.80
2019-05-26T03:05:47.119Z,6.80
2019-05-26T03:10:50.914Z,6.70
2019-05-26T03:15:55.237Z,6.60
2019-05-26T03:21:01.640Z,6.70
2019-05-26T03:26:03.345Z,6.80
2019-05-26T03:31:05.018Z,6.90
2019-05-26T03:36:10.367Z,6.80
2019-05-26T03:41:10.003Z,7.00
2019-05-26T03:46:17.837Z,7.20
2019-05-26T03:51:19.753Z,7.30
2019-05-26T03:56:21.356Z,7.50
2019-05-26T04:01:22.958Z,7.70
2019-05-26T04:06:24.473Z,7.90
2019-05-26T04:11:26.041Z,8.00
2019-05-26T04:16:27.773Z,8.20
2019-05-26T04:21:29.270Z,8.40
2019-05-26T04:26:30.770Z,8.60
2019-05-26T04:31:32.379Z,8.60
2019-05-26T04:36:33.877Z,8.80
2019-05-26T04:41:35.703Z,9.00
2019-05-26T04:46:37.331Z,9.20
2019-05-26T04:51:39.288Z,9.30
2019-05-26T04:56:40.791Z,9.50
2019-05-26T05:01:42.734Z,9.60
2019-05-26T05:06:44.254Z,9.60
2019-05-26T05:11:46.177Z,9.80
2019-05-26T05:16:47.674Z,9.90
2019-05-26T05:21:49.517Z,10.00
2019-05-26T05:26:51.115Z,10.10
2019-05-26T05:31:52.646Z,10.20
2019-05-26T05:36:54.436Z,10.30
2019-05-26T05:41:55.987Z,10.40
2019-05-26T05:46:57.620Z,10.60
2019-05-26T05:51:59.329Z,10.80
2019-05-26T05:57:00.816Z,10.90
2019-05-26T06:02:02.476Z,11.20
2019-05-26T06:07:04.063Z,11.40
2019-05-26T06:12:05.606Z,11.60
2019-05-26T06:17:10.417Z,11.70
2019-05-26T06:22:10.912Z,11.80
2019-05-26T06:27:12.554Z,12.00
2019-05-26T06:32:14.380Z,12.30
2019-05-26T06:37:16.230Z,12.50
2019-05-26T06:42:18.497Z,12.80
2019-05-26T06:47:20.079Z,12.90
2019-05-26T06:52:21.679Z,13.10
2019-05-26T06:57:23.281Z,13.40
2019-05-26T07:02:24.999Z,13.60
2019-05-26T07:07:26.481Z,13.80
2019-05-26T07:12:28.328Z,14.00
2019-05-26T07:17:29.827Z,14.10
2019-05-26T07:22:31.424Z,14.20
2019-05-26T07:27:33.090Z,14.50
2019-05-26T07:32:34.680Z,14.80
2019-05-26T07:37:36.415Z,15.10
2019-05-26T07:42:38.057Z,15.20
2019-05-26T07:47:39.670Z,15.40
2019-05-26T07:52:41.262Z,15.50
2019-05-26T07:57:42.764Z,15.60
2019-05-26T08:02:44.266Z,15.70
2019-05-26T08:07:45.993Z,15.80
2019-05-26T08:12:47.492Z,15.80
2019-05-26T08:17:49.148Z,16.10
2019-05-26T08:22:50.644Z,16.30
2019-05-26T08:27:52.250Z,16.40
2019-05-26T08:32:53.812Z,16.60
2019-05-26T08:37:55.510Z,16.90
2019-05-26T08:42:57.375Z,17.00
2019-05-26T08:47:59.197Z,17.10
2019-05-26T08:53:00.892Z,17.40
2019-05-26T08:58:03.775Z,17.50
2019-05-26T09:03:05.506Z,17.70
2019-05-26T09:08:08.212Z,17.50
2019-05-26T09:13:09.994Z,17.80
2019-05-26T09:18:11.492Z,18.20
2019-05-26T09:23:13.259Z,18.40
2019-05-26T09:28:15.164Z,18.30
2019-05-26T09:33:16.813Z,18.30
2019-05-26T09:38:18.638Z,18.90
2019-05-26T09:43:20.497Z,18.70
2019-05-26T09:48:22.496Z,18.60
2019-05-26T09:53:24.208Z,18.80
2019-05-26T09:58:25.805Z,19.40
2019-05-26T10:03:27.384Z,19.20
2019-05-26T10:08:29.111Z,19.20
2019-05-26T10:13:32.133Z,20.00
2019-05-26T10:18:34.239Z,19.60
2019-05-26T10:23:35.919Z,19.50
2019-05-26T10:28:38.008Z,19.80
2019-05-26T10:33:39.500Z,19.90
2019-05-26T10:38:41.617Z,19.70
2019-05-26T10:43:47.398Z,19.70
2019-05-26T10:48:46.684Z,20.00
2019-05-26T10:53:48.167Z,20.50
2019-05-26T10:58:49.663Z,20.40
2019-05-26T11:03:51.155Z,20.30
2019-05-26T11:08:52.646Z,20.20
2019-05-26T11:14:02.319Z,20.70
2019-05-26T11:18:57.642Z,21.10
2019-05-26T11:23:59.137Z,21.40
2019-05-26T11:29:00.632Z,21.30
2019-05-26T11:34:02.475Z,22.10
2019-05-26T11:39:06.478Z,21.30
2019-05-26T11:44:17.366Z,21.00
2019-05-26T11:49:11.491Z,21.40
2019-05-26T11:54:13.386Z,22.00
2019-05-26T11:59:14.974Z,21.80
2019-05-26T12:04:16.851Z,21.70
2019-05-26T12:09:18.409Z,21.60
2019-05-26T12:14:33.450Z,21.90
2019-05-26T12:19:23.637Z,22.20
2019-05-26T12:24:25.467Z,22.20
2019-05-26T12:29:27.057Z,22.30
2019-05-26T12:34:29.039Z,22.30
2019-05-26T12:39:30.556Z,22.00
2019-05-26T12:44:32.226Z,22.40
2019-05-26T12:49:34.262Z,22.80
2019-05-26T12:54:36.236Z,22.40
2019-05-26T12:59:37.726Z,22.60
2019-05-26T13:04:39.400Z,22.30
2019-05-26T13:09:41.042Z,22.30
2019-05-26T13:14:42.632Z,22.70
2019-05-26T13:19:44.154Z,22.50
2019-05-26T13:24:45.773Z,22.80
2019-05-26T13:29:47.842Z,22.50
2019-05-26T13:34:49.341Z,22.70
2019-05-26T13:39:51.172Z,22.60
2019-05-26T13:44:52.831Z,22.60
2019-05-26T13:49:54.484Z,22.40
2019-05-26T13:54:56.391Z,22.60
2019-05-26T13:59:58.020Z,22.70
2019-05-26T14:04:59.614Z,22.10
2019-05-26T14:10:01.491Z,21.90
2019-05-26T14:15:07.079Z,22.10
2019-05-26T14:20:10.562Z,22.30
2019-05-26T14:25:15.730Z,22.10
2019-05-26T14:30:18.461Z,22.00
2019-05-26T14:35:19.956Z,21.90
2019-05-26T14:40:21.478Z,21.80
2019-05-26T14:45:23.244Z,21.80
2019-05-26T14:50:25.564Z,21.60
2019-05-26T14:55:27.554Z,21.60
2019-05-26T15:00:29.495Z,21.50
2019-05-26T15:05:31.256Z,21.60
2019-05-26T15:10:32.753Z,21.60
2019-05-26T15:15:35.209Z,21.70
2019-05-26T15:20:36.888Z,21.80
2019-05-26T15:25:38.571Z,21.80
2019-05-26T15:30:40.062Z,21.90
2019-05-26T15:35:44.799Z,21.80
2019-05-26T15:40:45.148Z,22.00
2019-05-26T15:45:47.040Z,21.70
2019-05-26T15:50:48.922Z,21.60
2019-05-26T15:55:50.492Z,22.00
2019-05-26T16:00:52.055Z,21.80
2019-05-26T16:05:53.473Z,21.40
2019-05-26T16:10:55.114Z,21.10
2019-05-26T16:15:56.703Z,21.00
2019-05-26T16:21:03.142Z,20.80
2019-05-26T16:26:01.821Z,20.80
2019-05-26T16:31:03.425Z,20.90
2019-05-26T16:36:05.035Z,20.80
2019-05-26T16:41:06.955Z,20.80
2019-05-26T16:46:08.605Z,20.90
2019-05-26T16:51:10.390Z,20.70
2019-05-26T16:56:11.902Z,21.10
2019-05-26T17:01:13.544Z,21.30
2019-05-26T17:06:15.433Z,21.70
2019-05-26T17:11:17.028Z,21.70
2019-05-26T17:16:18.641Z,21.30
2019-05-26T17:21:20.391Z,21.10
2019-05-26T17:26:22.172Z,21.10
2019-05-26T17:31:23.751Z,21.10
2019-05-26T17:36:25.337Z,21.10
2019-05-26T17:41:26.920Z,20.90
2019-05-26T17:46:28.920Z,20.70
2019-05-26T17:51:31.238Z,20.60
2019-05-26T17:56:33.077Z,20.50
2019-05-26T18:01:34.625Z,20.40
2019-05-26T18:06:36.356Z,20.40
2019-05-26T18:11:37.829Z,20.20
2019-05-26T18:16:39.438Z,20.00
2019-05-26T18:21:41.247Z,19.80
2019-05-26T18:26:42.794Z,19.60
2019-05-26T18:31:44.686Z,19.50
2019-05-26T18:36:46.353Z,19.30
2019-05-26T18:41:47.953Z,19.00
2019-05-26T18:46:53.167Z,18.60
2019-05-26T18:51:53.018Z,18.10
2019-05-26T18:56:54.987Z,17.70
2019-05-26T19:01:56.682Z,17.40
2019-05-26T19:06:58.656Z,17.20
2019-05-26T19:12:00.535Z,17.10
2019-05-26T19:17:02.135Z,17.00
2019-05-26T19:22:03.938Z,17.20
2019-05-26T19:27:05.641Z,17.30
2019-05-26T19:32:07.346Z,17.50
2019-05-26T19:37:09.038Z,17.50
2019-05-26T19:42:10.749Z,17.40
2019-05-26T19:47:12.328Z,17.30
2019-05-26T19:52:14.283Z,17.30
2019-05-26T19:57:15.983Z,17.00
2019-05-26T20:02:18.881Z,16.50
2019-05-26T20:07:20.978Z,16.20
2019-05-26T20:12:22.690Z,15.90
2019-05-26T20:17:24.540Z,15.90
2019-05-26T20:22:26.124Z,15.70
2019-05-26T20:27:27.621Z,15.60
2019-05-26T20:32:29.322Z,15.60
2019-05-26T20:37:30.807Z,15.60
2019-05-26T20:42:32.411Z,15.70
2019-05-26T20:47:34.115Z,15.70
2019-05-26T20:52:35.799Z,15.70
2019-05-26T20:57:37.399Z,15.50
2019-05-26T21:02:39.099Z,15.30
2019-05-26T21:07:40.694Z,15.30
2019-05-26T21:12:42.386Z,15.30
2019-05-26T21:17:44.112Z,15.20
2019-05-26T21:22:45.900Z,15.20
2019-05-26T21:27:47.763Z,15.10
2019-05-26T21:32:49.718Z,14.90
2019-05-26T21:38:11.110Z,14.80
2019-05-26T21:43:12.674Z,14.70
2019-05-26T21:48:14.264Z,14.80
2019-05-26T21:53:15.935Z,14.80
2019-05-26T21:58:17.533Z,14.90
2019-05-26T22:03:20.062Z,14.90
2019-05-26T22:08:21.795Z,15.00
2019-05-26T22:13:23.482Z,15.00
2019-05-26T22:18:24.972Z,15.00
2019-05-26T22:23:26.752Z,14.90
2019-05-26T22:28:28.244Z,14.90
2019-05-26T22:33:29.752Z,14.90
2019-05-26T22:38:31.239Z,15.00
2019-05-26T22:43:32.987Z,15.00
2019-05-26T22:48:34.573Z,15.10
2019-05-26T22:53:36.066Z,15.30
2019-05-26T22:58:37.561Z,15.70
2019-05-26T23:03:39.184Z,15.80
2019-05-26T23:08:40.728Z,15.80
2019-05-26T23:13:42.228Z,16.00
2019-05-26T23:18:43.725Z,16.10
2019-05-26T23:23:45.208Z,16.20
2019-05-26T23:28:46.706Z,16.30
2019-05-26T23:33:48.193Z,16.30
2019-05-26T23:38:49.976Z,16.30
2019-05-26T23:43:51.664Z,16.30
2019-05-26T23:48:53.526Z,16.40
2019-05-26T23:53:55.115Z,16.30
2019-05-26T23:58:56.594Z,16.40
